FW4335 Weather Reports


Display with metric or nautical units.
time (UTC)temp
F
wind
direction
speed
MPH
gust
MPH
rain 1hr
in
rain 24hr
in
rain mn
in
humidity
%
barometer
mb
20210618181530 75 51 1.0 0.0 0.00 0.00 0.00 55 1016.5
20210618180042 73 89 1.0 0.0 0.00 0.00 0.00 55 1016.8
20210618174529 72 80 2.0 0.0 0.00 0.00 0.00 56 1016.8
20210618173026 72 109 2.0 0.0 0.00 0.00 0.00 57 1017.2
20210618171533 71 81 2.0 0.0 0.00 0.00 0.00 58 1017.2
20210618170036 71 71 2.0 0.0 0.00 0.00 0.00 59 1017.5
20210618164531 70 116 1.0 0.0 0.00 0.00 0.00 59 1017.5
20210618163028 69 97 1.0 0.0 0.00 0.00 0.00 60 1017.9
20210618161535 68 107 2.0 0.0 0.00 0.00 0.00 60 1017.9
20210618160031 67 100 2.0 0.0 0.00 0.00 0.00 63 1017.9
20210618154536 67 116 1.0 0.0 0.00 0.00 0.00 64 1018.2
20210618153029 67 77 1.0 0.0 0.00 0.00 0.00 66 1018.2
20210618151528 66 46 0.0 0.0 0.00 0.00 0.00 67 1018.2
20210618150038 65 49 0.0 0.0 0.00 0.00 0.00 67 1018.2
20210618144533 65 118 0.0 0.0 0.00 0.00 0.00 69 1018.2
20210618143032 63 166 0.0 0.0 0.00 0.00 0.00 75 1018.6
20210618141548 61 225 0.0 0.0 0.00 0.00 0.00 80 1018.6
20210618140043 58 225 0.0 0.0 0.00 0.00 0.00 85 1018.6
20210618134533 56 225 0.0 0.0 0.00 0.00 0.00 91 1018.6
20210618133030 52 225 0.0 0.0 0.00 0.00 0.00 94 1018.6
20210618131536 49 225 0.0 0.0 0.00 0.00 0.00 95 1018.2
20210618130039 48 225 0.0 0.0 0.00 0.00 0.00 95 1018.2
20210618124531 48 225 0.0 0.0 0.00 0.00 0.00 95 1018.2
20210618123031 49 225 0.0 0.0 0.00 0.00 0.00 95 1018.2
20210618121531 49 225 1.0 0.0 0.00 0.00 0.00 94 1018.2
20210618120034 49 225 0.0 0.0 0.00 0.00 0.00 93 1018.2
20210618114533 49 225 0.0 0.0 0.00 0.00 0.00 93 1018.2
20210618113032 50 225 0.0 0.0 0.00 0.00 0.00 93 1018.2
20210618111535 50 225 0.0 0.0 0.00 0.00 0.00 93 1017.9
20210618110033 50 225 0.0 0.0 0.00 0.00 0.00 93 1018.2
20210618104533 50 206 1.0 0.0 0.00 0.00 0.00 92 1017.9
20210618103030 51 202 0.0 0.0 0.00 0.00 0.00 92 1017.9
20210618101529 51 202 0.0 0.0 0.00 0.00 0.00 91 1017.9
20210618100032 51 202 0.0 0.0 0.00 0.00 0.00 91 1017.9
20210618094528 52 202 0.0 0.0 0.00 0.00 0.00 91 1017.9
20210618093032 52 202 0.0 0.0 0.00 0.00 0.00 91 1017.9
20210618091532 52 202 0.0 0.0 0.00 0.00 0.00 90 1017.9
20210618090030 53 202 0.0 0.0 0.00 0.00 0.00 89 1017.9
20210618084531 53 202 0.0 0.0 0.00 0.00 0.00 87 1017.9
20210618083032 54 202 0.0 0.0 0.00 0.00 0.00 87 1017.9
20210618081531 54 202 0.0 0.0 0.00 0.00 0.00 87 1017.9
20210618080032 55 202 0.0 0.0 0.00 0.00 0.00 86 1017.9
20210618074528 55 202 0.0 0.0 0.00 0.00 0.00 85 1017.9
20210618073029 56 213 0.0 0.0 0.00 0.00 0.00 84 1017.9
20210618071528 56 227 0.0 0.0 0.00 0.00 0.00 83 1017.9
20210618070035 57 225 0.0 0.0 0.00 0.00 0.00 83 1017.9
20210618064532 57 215 1.0 0.0 0.00 0.00 0.00 82 1017.9
20210618063028 58 220 0.0 0.0 0.00 0.00 0.00 82 1017.9
20210618061535 58 225 0.0 0.0 0.00 0.00 0.00 80 1017.9
20210618060029 59 225 0.0 0.0 0.00 0.00 0.00 78 1017.5
20210618054529 60 238 0.0 0.0 0.00 0.00 0.00 78 1017.5
20210618053033 60 247 0.0 0.0 0.00 0.00 0.00 76 1017.5
20210618051531 61 247 0.0 0.0 0.00 0.00 0.00 75 1017.5
20210618050033 62 247 0.0 0.0 0.00 0.00 0.00 72 1017.2
20210618044534 63 247 0.0 0.0 0.00 0.00 0.00 69 1017.2
20210618043033 65 185 0.0 0.0 0.00 0.00 0.00 68 1016.8
20210618041532 68 180 0.0 0.0 0.00 0.00 0.00 61 1016.5
20210618040033 70 183 0.0 0.0 0.00 0.00 0.00 55 1016.5
20210618034529 72 225 0.0 0.0 0.00 0.00 0.00 50 1016.5
20210618033031 74 220 0.0 0.0 0.00 0.00 0.00 45 1016.5
20210618031532 75 227 1.0 0.0 0.00 0.00 0.00 45 1016.1
20210618030037 76 294 0.0 0.0 0.00 0.00 0.00 44 1016.1
20210618024534 78 246 1.0 0.0 0.00 0.00 0.00 43 1016.1
20210618023035 80 239 0.0 0.0 0.00 0.00 0.00 40 1016.5
20210618021536 81 245 1.0 0.0 0.00 0.00 0.00 40 1016.5
20210618020032 81 265 1.0 0.0 0.00 0.00 0.00 41 1016.8
20210618014536 81 260 2.0 0.0 0.00 0.00 0.00 41 1016.8
20210618013032 82 259 1.0 0.0 0.00 0.00 0.00 41 1016.8
20210618011531 82 272 2.0 0.0 0.00 0.00 0.00 41 1016.8
20210618010029 83 266 1.0 0.0 0.00 0.00 0.00 40 1017.2
20210618004534 83 267 2.0 0.0 0.00 0.00 0.00 39 1017.2
20210618003035 84 292 1.0 0.0 0.00 0.00 0.00 38 1017.2
20210618001530 85 277 1.0 0.0 0.00 0.00 0.00 38 1017.2
20210618000032 85 277 0.0 0.0 0.00 0.00 0.00 40 1017.2
20210617234529 84 273 0.0 0.0 0.00 0.00 0.00 40 1017.2
20210617233032 84 300 0.0 0.0 0.00 0.00 0.00 39 1017.5
20210617231530 85 306 1.0 0.0 0.00 0.00 0.00 39 1017.5
20210617230028 85 311 0.0 0.0 0.00 0.00 0.00 40 1017.5
20210617224530 84 302 0.0 0.0 0.00 0.00 0.00 38 1017.9
20210617223032 83 295 1.0 0.0 0.00 0.00 0.00 37 1017.9
20210617221530 83 315 1.0 0.0 0.00 0.00 0.00 36 1018.2
20210617220030 83 309 1.0 0.0 0.00 0.00 0.00 38 1018.2
20210617214531 83 307 1.0 0.0 0.00 0.00 0.00 42 1018.6
20210617213033 83 320 0.0 0.0 0.00 0.00 0.00 45 1018.6
20210617211531 82 319 0.0 0.0 0.00 0.00 0.00 46 1018.6
20210617210032 82 351 1.0 0.0 0.00 0.00 0.00 46 1018.9
20210617204526 84 333 1.0 0.0 0.00 0.00 0.00 40 1019.2
20210617203036 83 252 0.0 0.0 0.00 0.00 0.00 43 1019.2
20210617201529 81 309 0.0 0.0 0.00 0.00 0.00 43 1019.6
20210617200038 80 73 1.0 0.0 0.00 0.00 0.00 44 1019.6
20210617194531 79 112 4.0 0.0 0.00 0.00 0.00 45 1019.9
20210617193027 79 78 2.0 0.0 0.00 0.00 0.00 47 1019.9
20210617191539 77 85 1.0 0.0 0.00 0.00 0.00 51 1020.3
20210617190032 76 40 1.0 0.0 0.00 0.00 0.00 53 1020.6
20210617184529 75 358 1.0 0.0 0.00 0.00 0.00 55 1020.6
20210617183042 75 50 1.0 0.0 0.00 0.00 0.00 56 1020.6